Current Weather

Waukegan

Waukegan, Illinois (KUGN)

Report from: Wednesday, May 29, 2024 1:51 AM CDT
Current time: Wednesday, May 29, 2024 2:48 AM CDT

Nearby weather – Weather history – Daily summaries
Weather forecast

Present weatherLight rain
Temperature12.8°C (55.0°F)
Dew point10.6°C (51.1°F)
Winds 6 kts (3.1 m/s, 6.9 mph) North (360°)
Wind gusts 15 kts (7.7 m/s, 17.3 mph)
Visibility10 mi. (16.1 km)
Clouds Ceiling: Overcast 8,500 ft. (2,591 m)
Altimeter30.05 in.Hg (1018 mB)
Precipitiation0.02 in. (1 mm)
Relative humidity86 %
Density altitude-222 ft. (-68 m)
Sea-level pressure101.7 kPa (1017 mB, 30.04 in.Hg)
Remarks Fully automated report
Automated weather observing station with precipitation discriminator
Flight conditions Visual Meteorological Conditions
Raw dataKUGN 290651Z AUTO 36006G15KT 10SM -RA OVC085 13/11 A3005 RMK AO2 SLP174 P0002 T01280106
An error has occurred. This application may no longer respond until reloaded. Reload 🗙